createdAt,value
2023-04-27T00:01:49.637Z,7.12
2023-04-27T00:04:19.293Z,7.16
2023-04-27T00:06:47.287Z,7.16
2023-04-27T00:09:15.200Z,7.16
2023-04-27T00:11:43.580Z,7.14
2023-04-27T00:14:11.507Z,7.12
2023-04-27T00:16:39.421Z,7.09
2023-04-27T00:19:09.005Z,7.06
2023-04-27T00:21:38.131Z,7.01
2023-04-27T00:24:06.457Z,6.97
2023-04-27T00:26:34.208Z,6.92
2023-04-27T00:29:01.993Z,6.88
2023-04-27T00:31:29.945Z,6.84
2023-04-27T00:33:57.730Z,6.80
2023-04-27T00:36:25.492Z,6.78
2023-04-27T00:38:54.720Z,6.71
2023-04-27T00:41:23.081Z,6.67
2023-04-27T00:43:50.861Z,6.61
2023-04-27T00:46:19.718Z,6.60
2023-04-27T00:48:47.995Z,6.58
2023-04-27T00:51:16.525Z,6.57
2023-04-27T00:53:44.878Z,6.57
2023-04-27T00:56:14.202Z,6.56
2023-04-27T00:58:42.031Z,6.51
2023-04-27T01:01:12.007Z,6.46
2023-04-27T01:03:40.104Z,6.39
2023-04-27T01:06:08.594Z,6.28
2023-04-27T01:08:36.585Z,6.28
2023-04-27T01:11:04.457Z,6.26
2023-04-27T01:13:33.606Z,6.28
2023-04-27T01:16:01.399Z,6.27
2023-04-27T01:18:29.137Z,6.28
2023-04-27T01:20:57.077Z,6.27
2023-04-27T01:23:26.316Z,6.29
2023-04-27T01:25:54.053Z,6.28
2023-04-27T01:28:21.898Z,6.26
2023-04-27T01:30:49.837Z,6.20
2023-04-27T01:33:17.661Z,6.17
2023-04-27T01:35:45.473Z,6.08
2023-04-27T01:38:13.481Z,6.11
2023-04-27T01:40:42.771Z,6.13
2023-04-27T01:43:10.512Z,6.11
2023-04-27T01:45:38.228Z,6.12
2023-04-27T01:48:06.294Z,6.12
2023-04-27T01:50:34.118Z,6.08
2023-04-27T01:53:01.992Z,5.91
2023-04-27T01:55:29.850Z,5.93
2023-04-27T01:57:59.067Z,5.88
2023-04-27T02:00:27.294Z,5.80
2023-04-27T02:02:57.374Z,5.72
2023-04-27T02:05:25.481Z,5.81
2023-04-27T02:07:53.314Z,5.71
2023-04-27T02:10:22.257Z,5.75
2023-04-27T02:12:50.008Z,5.79
2023-04-27T02:15:19.423Z,5.83
2023-04-27T02:17:47.300Z,5.85
2023-04-27T02:20:15.249Z,5.83
2023-04-27T02:22:44.526Z,5.77
2023-04-27T02:25:13.545Z,5.75
2023-04-27T02:27:42.485Z,5.66
2023-04-27T02:30:12.645Z,5.58
2023-04-27T02:32:42.500Z,5.55
2023-04-27T02:35:11.055Z,5.54
2023-04-27T02:37:38.848Z,5.52
2023-04-27T02:40:08.362Z,5.53
2023-04-27T02:42:38.162Z,5.54
2023-04-27T02:45:07.960Z,5.47
2023-04-27T02:47:35.868Z,5.52
2023-04-27T02:50:05.877Z,5.57
2023-04-27T02:52:33.606Z,5.57
2023-04-27T02:55:02.131Z,5.59
2023-04-27T02:57:30.219Z,5.58
2023-04-27T02:59:58.094Z,5.57
2023-04-27T03:02:25.909Z,5.54
2023-04-27T03:04:57.013Z,5.52
2023-04-27T03:07:26.178Z,5.52
2023-04-27T03:09:53.983Z,5.50
2023-04-27T03:12:21.701Z,5.46
2023-04-27T03:14:49.426Z,5.44
2023-04-27T03:20:10.343Z,5.26
2023-04-27T03:22:39.554Z,5.25
2023-04-27T03:25:08.378Z,5.25
2023-04-27T03:27:36.477Z,5.25
2023-04-27T03:30:04.632Z,5.19
2023-04-27T03:32:32.470Z,5.12
2023-04-27T03:35:00.280Z,5.12
2023-04-27T03:37:28.124Z,5.14
2023-04-27T03:39:57.212Z,5.14
2023-04-27T03:42:27.673Z,5.10
2023-04-27T03:45:06.633Z,5.11
2023-04-27T03:47:34.480Z,5.05
2023-04-27T03:50:02.283Z,5.02
2023-04-27T03:52:30.195Z,5.07
2023-04-27T03:54:59.403Z,5.08
2023-04-27T03:57:27.138Z,5.07
2023-04-27T03:59:54.857Z,5.05
2023-04-27T04:02:23.454Z,5.04
2023-04-27T04:04:51.355Z,5.02
2023-04-27T04:07:19.180Z,5.03
2023-04-27T04:09:46.879Z,5.05
2023-04-27T04:12:16.007Z,5.02
2023-04-27T04:14:43.994Z,5.05
2023-04-27T04:17:11.988Z,5.04
2023-04-27T04:19:39.685Z,5.01
2023-04-27T04:22:07.335Z,5.03
2023-04-27T04:24:35.072Z,5.00
2023-04-27T04:27:02.832Z,5.01
2023-04-27T04:29:32.814Z,5.04
2023-04-27T04:32:00.734Z,5.07
2023-04-27T04:34:29.230Z,5.10
2023-04-27T04:36:57.823Z,5.10
2023-04-27T04:39:27.223Z,5.12
2023-04-27T04:41:55.212Z,5.16
2023-04-27T04:44:23.012Z,5.17
2023-04-27T04:46:52.364Z,5.19
2023-04-27T04:49:20.122Z,5.21
2023-04-27T04:51:47.889Z,5.23
2023-04-27T04:54:15.673Z,5.21
2023-04-27T04:56:43.873Z,5.25
2023-04-27T04:59:11.785Z,5.27
2023-04-27T05:01:39.724Z,5.27
2023-04-27T05:04:09.275Z,5.35
2023-04-27T05:06:37.596Z,5.45
2023-04-27T05:09:06.569Z,5.57
2023-04-27T05:11:34.447Z,5.66
2023-04-27T05:14:03.317Z,5.75
2023-04-27T05:16:31.891Z,5.83
2023-04-27T05:18:59.995Z,5.90
2023-04-27T05:21:30.388Z,5.98
2023-04-27T05:24:00.130Z,6.04
2023-04-27T05:26:29.236Z,6.09
2023-04-27T05:28:57.160Z,6.16
2023-04-27T05:31:25.425Z,6.23
2023-04-27T05:33:53.404Z,6.27
2023-04-27T05:36:21.587Z,6.31
2023-04-27T05:38:51.734Z,6.37
2023-04-27T05:41:19.623Z,6.44
2023-04-27T05:43:47.502Z,6.51
2023-04-27T05:50:31.639Z,6.77
2023-04-27T05:53:06.412Z,6.86
2023-04-27T05:55:36.115Z,6.97
2023-04-27T05:58:07.812Z,7.05
2023-04-27T06:00:41.153Z,7.13
2023-04-27T06:03:09.435Z,7.15
2023-04-27T06:05:37.613Z,7.20
2023-04-27T06:08:06.264Z,7.25
2023-04-27T06:10:37.000Z,7.33
2023-04-27T06:13:05.280Z,7.42
2023-04-27T06:15:34.311Z,7.41
2023-04-27T06:18:02.520Z,7.48
2023-04-27T06:20:30.548Z,7.52
2023-04-27T06:23:00.239Z,7.60
2023-04-27T06:25:28.784Z,7.70
2023-04-27T06:27:59.742Z,7.72
2023-04-27T06:30:27.911Z,7.76
2023-04-27T06:32:56.111Z,7.79
2023-04-27T06:35:24.169Z,7.79
2023-04-27T06:37:52.859Z,7.88
2023-04-27T06:40:21.167Z,7.93
2023-04-27T06:42:51.097Z,7.97
2023-04-27T06:45:21.149Z,8.05
2023-04-27T06:47:49.400Z,8.13
2023-04-27T06:59:30.556Z,8.48
2023-04-27T07:02:43.322Z,8.53
2023-04-27T07:05:30.869Z,8.53
2023-04-27T07:18:17.277Z,8.71
2023-04-27T07:46:15.026Z,9.46
2023-04-27T07:48:45.274Z,9.50
2023-04-27T07:51:17.592Z,9.56
2023-04-27T07:53:47.777Z,9.59
2023-04-27T07:56:16.867Z,9.48
2023-04-27T07:58:46.452Z,9.51
2023-04-27T08:01:14.511Z,9.61
2023-04-27T08:03:42.921Z,9.74
2023-04-27T08:06:11.445Z,9.87
2023-04-27T08:08:39.741Z,9.96
2023-04-27T08:11:10.940Z,10.03
2023-04-27T08:13:39.215Z,10.10
2023-04-27T08:16:09.224Z,10.15
2023-04-27T08:18:37.241Z,10.16
2023-04-27T08:21:05.583Z,10.24
2023-04-27T08:23:34.036Z,10.31
2023-04-27T08:26:01.998Z,10.34
2023-04-27T08:28:30.283Z,10.34
2023-04-27T08:31:26.114Z,10.46
2023-04-27T08:33:56.272Z,10.54
2023-04-27T08:36:25.355Z,10.68
2023-04-27T08:38:54.301Z,10.84
2023-04-27T08:41:23.087Z,10.82
2023-04-27T08:43:53.392Z,10.89
2023-04-27T08:46:22.352Z,10.94
2023-04-27T08:48:52.285Z,11.09
2023-04-27T08:51:22.831Z,11.23
2023-04-27T08:53:52.551Z,11.28
2023-04-27T08:56:23.560Z,11.32
2023-04-27T08:58:51.869Z,11.47
2023-04-27T09:01:20.312Z,11.62
2023-04-27T09:03:48.952Z,11.72
2023-04-27T09:06:17.814Z,11.76
2023-04-27T09:08:48.883Z,11.74
2023-04-27T09:11:17.959Z,11.71
2023-04-27T09:13:46.395Z,11.75
2023-04-27T09:16:15.375Z,11.70
2023-04-27T09:18:45.243Z,11.77
2023-04-27T09:21:23.672Z,11.88
2023-04-27T09:23:53.891Z,12.00
2023-04-27T09:26:23.627Z,12.07
2023-04-27T09:28:53.138Z,12.19
2023-04-27T09:31:21.826Z,12.31
2023-04-27T09:33:56.592Z,12.35
2023-04-27T09:36:25.869Z,12.42
2023-04-27T09:38:55.764Z,12.48
2023-04-27T09:41:24.004Z,12.45
2023-04-27T09:43:54.747Z,12.44
2023-04-27T09:46:24.300Z,12.41
2023-04-27T09:48:53.766Z,12.51
2023-04-27T09:51:21.941Z,12.67
2023-04-27T09:53:54.169Z,12.83
2023-04-27T09:56:33.642Z,13.04
2023-04-27T09:59:16.800Z,13.18
2023-04-27T10:01:48.223Z,13.22
2023-04-27T10:04:29.575Z,13.20
2023-04-27T10:07:02.670Z,13.23
2023-04-27T10:09:39.063Z,13.26
2023-04-27T10:12:19.517Z,13.18
2023-04-27T10:14:55.543Z,13.09
2023-04-27T10:17:31.539Z,13.15
2023-04-27T10:20:01.425Z,13.14
2023-04-27T10:22:40.381Z,13.24
2023-04-27T10:25:30.768Z,13.35
2023-04-27T10:28:02.654Z,13.34
2023-04-27T10:30:34.588Z,13.35
2023-04-27T10:33:07.291Z,13.42
2023-04-27T10:35:36.777Z,13.44
2023-04-27T10:38:08.932Z,13.59
2023-04-27T10:40:37.405Z,13.71
2023-04-27T10:43:14.643Z,13.76
2023-04-27T10:45:43.515Z,13.76
2023-04-27T10:48:14.623Z,13.79
2023-04-27T10:50:44.647Z,13.87
2023-04-27T10:53:13.241Z,14.02
2023-04-27T10:55:41.164Z,14.23
2023-04-27T10:58:09.053Z,14.31
2023-04-27T11:00:42.244Z,14.31
2023-04-27T11:03:17.027Z,14.39
2023-04-27T11:05:46.288Z,14.49
2023-04-27T11:08:16.272Z,14.53
2023-04-27T11:10:46.337Z,14.62
2023-04-27T11:13:15.940Z,14.71
2023-04-27T11:15:47.610Z,14.82
2023-04-27T11:18:17.294Z,14.82
2023-04-27T11:20:46.530Z,14.68
2023-04-27T11:23:25.417Z,14.66
2023-04-27T11:25:53.427Z,14.70
2023-04-27T11:28:22.547Z,14.67
2023-04-27T11:30:59.029Z,14.67
2023-04-27T11:33:27.229Z,14.65
2023-04-27T11:35:56.671Z,14.58
2023-04-27T11:38:24.873Z,14.61
2023-04-27T11:41:04.610Z,14.73
2023-04-27T11:43:33.462Z,14.85
2023-04-27T11:46:06.183Z,14.88
2023-04-27T11:48:34.163Z,14.95
2023-04-27T11:51:02.085Z,15.02
2023-04-27T11:53:34.282Z,15.08
2023-04-27T11:56:05.449Z,15.03
2023-04-27T11:58:34.751Z,14.99
2023-04-27T12:01:03.490Z,14.74
2023-04-27T12:03:33.342Z,14.73
2023-04-27T12:06:15.850Z,14.83
2023-04-27T12:08:49.539Z,14.96
2023-04-27T12:11:17.471Z,15.09
2023-04-27T12:13:45.508Z,15.26
2023-04-27T12:16:13.823Z,15.31
2023-04-27T12:18:44.017Z,15.29
2023-04-27T12:21:12.347Z,15.38
2023-04-27T12:23:41.220Z,15.51
2023-04-27T12:26:09.483Z,15.62
2023-04-27T12:28:37.680Z,15.67
2023-04-27T12:31:07.350Z,15.42
2023-04-27T12:33:35.250Z,15.22
2023-04-27T12:36:04.969Z,15.04
2023-04-27T12:38:32.893Z,15.04
2023-04-27T12:41:03.472Z,15.22
2023-04-27T12:43:31.537Z,15.44
2023-04-27T12:45:59.507Z,15.58
2023-04-27T12:48:27.641Z,15.65
2023-04-27T12:50:57.894Z,15.72
2023-04-27T12:53:27.278Z,15.79
2023-04-27T12:55:55.893Z,15.66
2023-04-27T12:58:25.728Z,15.64
2023-04-27T13:00:53.506Z,15.51
2023-04-27T13:03:21.534Z,15.65
2023-04-27T13:05:49.453Z,15.83
2023-04-27T13:08:17.389Z,15.91
2023-04-27T13:10:47.283Z,16.01
2023-04-27T13:13:15.677Z,16.12
2023-04-27T13:15:43.788Z,16.22
2023-04-27T13:18:15.241Z,16.16
2023-04-27T13:20:44.188Z,16.04
2023-04-27T13:23:12.527Z,15.92
2023-04-27T13:25:40.431Z,15.88
2023-04-27T13:28:10.123Z,15.87
2023-04-27T13:30:38.238Z,16.02
2023-04-27T13:33:18.951Z,16.14
2023-04-27T13:35:50.653Z,16.25
2023-04-27T13:38:18.883Z,16.36
2023-04-27T13:40:47.106Z,16.38
2023-04-27T13:43:18.574Z,16.43
2023-04-27T13:45:47.368Z,16.42
2023-04-27T13:48:15.317Z,16.38
2023-04-27T13:50:43.220Z,16.21
2023-04-27T13:53:13.078Z,16.12
2023-04-27T13:55:41.774Z,16.01
2023-04-27T13:58:10.826Z,15.97
2023-04-27T14:00:40.315Z,16.11
2023-04-27T14:03:09.643Z,16.31
2023-04-27T14:05:37.544Z,16.28
2023-04-27T14:08:07.504Z,16.22
2023-04-27T14:10:37.615Z,16.31
2023-04-27T14:13:06.021Z,16.48
2023-04-27T14:15:37.177Z,16.61
2023-04-27T14:18:08.228Z,16.60
2023-04-27T14:20:36.535Z,16.54
2023-04-27T14:23:05.527Z,16.41
2023-04-27T14:25:34.882Z,16.49
2023-04-27T14:28:05.675Z,16.62
2023-04-27T14:30:34.027Z,16.54
2023-04-27T14:33:02.542Z,16.53
2023-04-27T14:35:32.265Z,16.61
2023-04-27T14:38:06.901Z,16.64
2023-04-27T14:41:08.791Z,16.81
2023-04-27T14:43:43.031Z,16.86
2023-04-27T14:46:20.302Z,16.88
2023-04-27T14:48:49.245Z,17.00
2023-04-27T14:51:19.261Z,17.09
2023-04-27T14:53:49.473Z,17.17
2023-04-27T14:56:19.365Z,17.17
2023-04-27T14:58:47.370Z,17.07
2023-04-27T15:01:15.576Z,16.97
2023-04-27T15:03:43.910Z,16.97
2023-04-27T15:06:12.449Z,16.88
2023-04-27T15:08:42.395Z,16.88
2023-04-27T15:11:12.879Z,16.80
2023-04-27T15:13:41.244Z,16.85
2023-04-27T15:16:09.463Z,16.84
2023-04-27T15:18:38.099Z,16.84
2023-04-27T15:21:09.566Z,16.83
2023-04-27T15:23:38.095Z,16.85
2023-04-27T15:26:07.626Z,16.89
2023-04-27T15:28:36.445Z,16.91
2023-04-27T15:31:04.692Z,16.86
2023-04-27T15:33:32.835Z,16.88
2023-04-27T15:36:00.908Z,16.90
2023-04-27T15:38:29.117Z,16.93
2023-04-27T15:40:57.211Z,16.78
2023-04-27T15:43:26.870Z,16.72
2023-04-27T15:45:55.917Z,16.68
2023-04-27T15:48:24.086Z,16.75
2023-04-27T15:50:52.210Z,16.74
2023-04-27T15:53:20.441Z,16.61
2023-04-27T15:55:48.403Z,16.54
2023-04-27T15:58:16.924Z,16.38
2023-04-27T16:00:47.937Z,16.32
2023-04-27T16:03:16.507Z,16.25
2023-04-27T16:05:44.641Z,16.30
2023-04-27T16:08:12.700Z,16.34
2023-04-27T16:10:41.128Z,16.49
2023-04-27T16:13:09.656Z,16.47
2023-04-27T16:15:37.849Z,16.24
2023-04-27T16:18:07.504Z,16.15
2023-04-27T16:20:36.573Z,16.14
2023-04-27T16:23:05.352Z,15.98
2023-04-27T16:25:33.289Z,15.95
2023-04-27T16:28:01.495Z,15.94
2023-04-27T16:30:29.544Z,15.86
2023-04-27T16:32:57.542Z,15.98
2023-04-27T16:35:29.286Z,16.01
2023-04-27T16:37:59.734Z,15.91
2023-04-27T16:40:28.179Z,16.01
2023-04-27T16:42:56.202Z,16.01
2023-04-27T16:45:24.842Z,15.91
2023-04-27T16:47:53.523Z,15.75
2023-04-27T16:50:25.718Z,15.51
2023-04-27T16:53:06.580Z,15.41
2023-04-27T16:55:38.622Z,15.38
2023-04-27T16:58:07.491Z,15.27
2023-04-27T17:00:35.693Z,15.17
2023-04-27T17:03:05.013Z,15.23
2023-04-27T17:05:33.904Z,15.22
2023-04-27T17:08:05.504Z,15.13
2023-04-27T17:10:35.660Z,15.27
2023-04-27T17:13:05.416Z,15.26
2023-04-27T17:15:34.024Z,15.17
2023-04-27T17:18:05.206Z,14.93
2023-04-27T17:20:43.828Z,14.99
2023-04-27T17:23:13.579Z,14.95
2023-04-27T17:25:42.220Z,15.01
2023-04-27T17:28:11.330Z,15.08
2023-04-27T17:30:40.522Z,14.97
2023-04-27T17:33:10.625Z,14.91
2023-04-27T17:35:39.188Z,14.85
2023-04-27T17:38:07.420Z,14.83
2023-04-27T17:40:39.493Z,14.81
2023-04-27T17:43:10.306Z,14.76
2023-04-27T17:45:38.798Z,14.76
2023-04-27T17:48:07.568Z,14.80
2023-04-27T17:50:36.352Z,14.83
2023-04-27T17:53:04.303Z,14.78
2023-04-27T17:55:32.496Z,14.65
2023-04-27T17:58:03.980Z,14.58
2023-04-27T18:00:31.950Z,14.53
2023-04-27T18:03:00.151Z,14.50
2023-04-27T18:05:29.033Z,14.42
2023-04-27T18:07:56.928Z,14.31
2023-04-27T18:10:24.841Z,14.23
2023-04-27T18:12:52.685Z,14.08
2023-04-27T18:15:21.807Z,14.07
2023-04-27T18:17:49.722Z,14.04
2023-04-27T18:20:17.715Z,14.01
2023-04-27T18:22:45.559Z,13.97
2023-04-27T18:25:13.529Z,13.96
2023-04-27T18:27:41.595Z,13.89
2023-04-27T18:30:09.768Z,13.87
2023-04-27T18:32:38.991Z,13.87
2023-04-27T18:35:07.696Z,13.82
2023-04-27T18:37:35.397Z,13.74
2023-04-27T18:40:04.881Z,13.77
2023-04-27T18:42:32.862Z,13.76
2023-04-27T18:45:01.835Z,13.74
2023-04-27T18:47:29.628Z,13.70
2023-04-27T18:49:58.778Z,13.63
2023-04-27T18:52:26.490Z,13.65
2023-04-27T18:54:54.311Z,13.57
2023-04-27T18:57:22.252Z,13.58
2023-04-27T18:59:50.016Z,13.48
2023-04-27T19:02:17.789Z,13.45
2023-04-27T19:04:53.070Z,13.41
2023-04-27T19:07:26.300Z,13.38
2023-04-27T19:09:55.188Z,13.33
2023-04-27T19:12:24.199Z,13.32
2023-04-27T19:14:52.246Z,13.30
2023-04-27T19:17:20.308Z,13.24
2023-04-27T19:19:48.412Z,13.26
2023-04-27T19:22:16.110Z,13.30
2023-04-27T19:24:45.420Z,13.28
2023-04-27T19:27:14.068Z,13.21
2023-04-27T19:29:52.933Z,13.20
2023-04-27T19:32:21.289Z,13.10
2023-04-27T19:35:35.068Z,13.14
2023-04-27T19:38:10.068Z,13.11
2023-04-27T19:40:57.709Z,13.09
2023-04-27T19:43:25.525Z,13.09
2023-04-27T19:45:53.730Z,13.12
2023-04-27T19:48:21.680Z,13.15
2023-04-27T19:50:49.515Z,13.16
2023-04-27T19:53:17.377Z,13.12
2023-04-27T19:56:00.641Z,13.12
2023-04-27T19:58:28.706Z,13.09
2023-04-27T20:00:56.528Z,13.10
2023-04-27T20:03:24.496Z,13.12
2023-04-27T20:05:53.024Z,13.08
2023-04-27T20:08:20.997Z,13.02
2023-04-27T20:10:50.258Z,13.04
2023-04-27T20:13:18.014Z,13.02
2023-04-27T20:15:46.668Z,13.06
2023-04-27T20:18:14.617Z,13.04
2023-04-27T20:20:42.995Z,13.02
2023-04-27T20:23:10.868Z,13.00
2023-04-27T20:25:38.864Z,13.02
2023-04-27T20:28:07.995Z,13.03
2023-04-27T20:30:35.749Z,13.02
2023-04-27T20:33:03.817Z,12.97
2023-04-27T20:35:32.180Z,12.94
2023-04-27T20:38:00.480Z,12.91
2023-04-27T20:40:28.425Z,12.90
2023-04-27T20:42:56.403Z,12.87
2023-04-27T20:45:25.707Z,12.81
2023-04-27T20:47:53.604Z,12.83
2023-04-27T20:50:21.778Z,12.78
2023-04-27T20:52:49.555Z,12.75
2023-04-27T20:55:17.435Z,12.67
2023-04-27T20:57:45.193Z,12.66
2023-04-27T21:00:16.961Z,12.65
2023-04-27T21:02:46.191Z,12.66
2023-04-27T21:05:13.977Z,12.60
2023-04-27T21:07:41.727Z,12.62
2023-04-27T21:10:09.945Z,12.62
2023-04-27T21:12:37.657Z,12.67
2023-04-27T21:15:06.003Z,12.68
2023-04-27T21:17:56.301Z,12.69
2023-04-27T21:20:25.464Z,12.62
2023-04-27T21:22:56.812Z,12.57
2023-04-27T21:25:24.553Z,12.53
2023-04-27T21:27:52.223Z,12.54
2023-04-27T21:30:20.006Z,12.55
2023-04-27T21:32:47.827Z,12.55
2023-04-27T21:35:15.671Z,12.49
2023-04-27T21:37:44.729Z,12.46
2023-04-27T21:40:13.098Z,12.42
2023-04-27T21:42:40.852Z,12.43
2023-04-27T21:45:09.838Z,12.44
2023-04-27T21:47:38.478Z,12.35
2023-04-27T21:50:08.327Z,12.36
2023-04-27T21:52:36.089Z,12.36
2023-04-27T21:55:05.701Z,12.33
2023-04-27T21:57:33.488Z,12.34
2023-04-27T22:00:01.727Z,12.32
2023-04-27T22:02:30.731Z,12.32
2023-04-27T22:04:59.735Z,12.32
2023-04-27T22:07:28.328Z,12.32
2023-04-27T22:09:55.984Z,12.32
2023-04-27T22:12:25.112Z,12.32
2023-04-27T22:14:52.726Z,12.27
2023-04-27T22:17:20.398Z,12.28
2023-04-27T22:19:48.098Z,12.27
2023-04-27T22:22:15.890Z,12.25
2023-04-27T22:24:43.589Z,12.26
2023-04-27T22:27:11.460Z,12.22
2023-04-27T22:29:40.606Z,12.16
2023-04-27T22:32:08.466Z,12.15
2023-04-27T22:34:37.191Z,12.14
2023-04-27T22:37:05.004Z,12.13
2023-04-27T22:39:32.918Z,12.12
2023-04-27T22:42:00.647Z,12.08
2023-04-27T22:44:28.354Z,12.06
2023-04-27T22:46:57.515Z,12.02
2023-04-27T22:49:25.264Z,11.96
2023-04-27T22:51:53.973Z,11.98
2023-04-27T22:54:21.727Z,11.97
2023-04-27T22:56:49.472Z,12.00
2023-04-27T22:59:22.547Z,12.01
2023-04-27T23:01:50.865Z,12.00
2023-04-27T23:04:20.533Z,12.01
2023-04-27T23:06:48.972Z,12.01
2023-04-27T23:09:16.764Z,11.92
2023-04-27T23:11:44.455Z,11.93
2023-04-27T23:14:12.155Z,11.97
2023-04-27T23:16:39.934Z,11.93
2023-04-27T23:19:07.762Z,11.94
2023-04-27T23:21:36.857Z,11.94
2023-04-27T23:24:05.216Z,11.96
2023-04-27T23:26:32.972Z,11.95
2023-04-27T23:29:00.668Z,12.00
2023-04-27T23:31:28.458Z,12.01
2023-04-27T23:33:56.166Z,11.98
2023-04-27T23:36:23.956Z,11.96
2023-04-27T23:38:53.587Z,11.94
2023-04-27T23:41:21.291Z,11.93
2023-04-27T23:43:48.994Z,11.95
2023-04-27T23:46:16.771Z,11.93
2023-04-27T23:48:44.553Z,11.90
2023-04-27T23:51:12.260Z,11.85
2023-04-27T23:53:39.966Z,11.81
2023-04-27T23:56:17.909Z,11.82
2023-04-27T23:58:45.662Z,11.86
